Terminal Aerodrome Forecast
Issued by NWS

Home | Current Version | Previous Version | Text Only | Print | Product List | Glossary On
Versions: 1 2 3 4 5 6 7 8 9 10 11 12 13 14 15 16 17 18 19 20 21 22 23 24 25 26 27 28 29 30 31 32 33 34
000
FTUS43 KLOT 040755 AAA
TAFMDW
TAF AMD
KMDW 040755Z 0408/0506 31013G21KT P6SM -SHRA VCTS SCT040 OVC090CB
     FM041000 31010KT P6SM -SHRA VCTS OVC040CB
     FM041200 30007KT 5SM -SHRA SCT020 OVC035
     FM041500 32007KT 6SM BR VCSH OVC015
     FM041700 03011KT P6SM VCSH OVC015
     FM042100 03010KT P6SM BKN025
     FM050000 04009KT P6SM BKN040=

USA.gov is the U.S. government's official web portal to all federal, state and local government web resources and services.